Latest Weather Observations for Gympie

IDQ60901

Issued at 5:21 am EST Friday 19 December 2014 (issued every 10 minutes, with the page automatically refreshed every 10 minutes)

About weather observations | Map of Brisbane area stations | Latest observations for Brisbane area | Other Formats
Station Details ID: 040093 Name: GYMPIE Lat: -26.18 Lon: 152.64 Height: 64.5 m
Data from the previous 72 hours. | See also: Recent months at Gympie
Date/Time
EST
Tmp

°C
App
Tmp
°C
Dew
Point
°C
Rel
Hum
%
Delta-T

°C
Wind Press
QNH
hPa
Press
MSL
hPa
Rain
since
9 am
mm
Dir
 
Spd
km/h
Gust
km/h
Spd
kts
Gust
kts
19/05:00am 20.4 24.0 19.7 96 0.4 CALM 0 0 0 0 1012.3 1011.9 17.0
19/04:30am 20.5 24.0 19.5 94 0.6 CALM 0 0 0 0 1012.0 1011.6 17.0
19/04:00am 20.4 23.5 19.6 95 0.5 NE 2 2 1 1 1012.0 1011.6 16.8
19/03:30am 20.7 23.6 19.9 95 0.5 WNW 4 6 2 3 1012.4 1012.0 16.0
19/03:00am 20.6 23.8 19.8 95 0.5 WSW 2 4 1 2 1012.3 1011.9 15.2
19/02:30am 20.9 24.3 20.2 96 0.5 NNW 2 4 1 2 1012.4 1012.0 14.8
19/02:00am 20.8 23.8 20.1 96 0.4 NW 4 6 2 3 1012.5 1012.1 14.2
19/01:30am 20.8 24.4 19.8 94 0.6 CALM 0 0 0 0 1012.3 1011.9 13.4
19/01:00am 20.8 23.2 19.6 93 0.8 S 6 7 3 4 1012.5 1012.1 10.2
19/12:30am 21.5 24.0 20.3 93 0.8 SSW 7 13 4 7 1013.2 1012.8 9.2
19/12:00am 22.5 26.0 21.8 96 0.5 SSW 6 9 3 5 1013.2 1012.8 8.0
 
Date/Time
EST
Tmp

°C
App
Tmp
°C
Dew
Point
°C
Rel
Hum
%
Delta-T

°C
Wind Press
QNH
hPa
Press
MSL
hPa
Rain
since
9 am
mm
Dir
 
Spd
km/h
Gust
km/h
Spd
kts
Gust
kts
18/11:30pm 22.8 26.4 22.0 95 0.5 WSW 6 7 3 4 1013.7 1013.4 5.4
18/11:00pm 22.8 26.4 22.0 95 0.5 NNE 6 9 3 5 1013.1 1012.7 4.0
18/10:30pm 22.9 27.6 21.9 94 0.7 CALM 0 0 0 0 1013.0 1012.6 3.0
18/10:00pm 23.0 27.1 21.6 92 0.9 W 2 4 1 2 1013.3 1013.0 1.6
18/09:30pm 23.1 26.5 21.7 92 0.9 W 6 11 3 6 1013.0 1012.6 0.6
18/09:00pm 23.5 27.3 21.6 89 1.3 NE 4 6 2 3 1011.9 1011.5 0.6
18/08:30pm 23.5 27.1 21.2 87 1.5 E 4 7 2 4 1011.3 1010.9 0.6
18/08:00pm 23.3 26.7 21.0 87 1.5 SE 4 7 2 4 1010.9 1010.5 0.6
18/07:30pm 23.8 26.5 20.7 83 2.0 WSW 7 19 4 10 1011.1 1010.7 0.2
18/07:05pm 27.5 27.3 19.8 63 5.0 WNW 20 57 11 31 1011.2 1010.8 0.0
18/07:00pm 27.8 29.9 20.9 66 4.6 NW 11 32 6 17 1010.8 1010.4 0.0
18/06:59pm 27.6 29.9 20.7 66 4.6 NW 9 24 5 13 1010.8 1010.4 0.0
18/06:30pm 27.9 30.2 20.7 65 4.8 N 9 17 5 9 1008.8 1008.4 0.0
18/06:00pm 28.4 30.2 20.4 62 5.3 N 11 19 6 10 1008.1 1007.7 0.0
18/05:30pm 28.8 29.1 20.5 61 5.5 N 19 26 10 14 1007.8 1007.4 0.0
18/05:00pm 29.6 30.7 21.3 61 5.6 N 17 33 9 18 1007.3 1006.9 0.0
18/04:30pm 30.3 32.1 21.9 60 5.7 N 15 30 8 16 1007.0 1006.6 0.0
18/04:00pm 30.9 32.2 21.7 58 6.2 N 17 26 9 14 1006.5 1006.2 0.0
18/03:30pm 31.8 32.9 21.9 55 6.7 NNE 19 33 10 18 1006.3 1006.0 0.0
18/03:00pm 32.8 33.7 21.6 51 7.6 NNE 19 28 10 15 1006.0 1005.7 0.0
18/02:30pm 33.7 34.8 20.5 46 8.8 N 15 26 8 14 1006.2 1005.9 0.0
18/02:00pm 34.1 35.0 20.1 43 9.4 N 15 30 8 16 1006.7 1006.4 0.0
18/01:30pm 34.0 34.9 20.0 43 9.3 N 15 26 8 14 1007.6 1007.2 0.0
18/01:00pm 33.2 34.8 20.7 47 8.4 N 13 26 7 14 1008.3 1007.9 0.0
18/12:30pm 32.9 34.6 21.7 51 7.6 NW 15 28 8 15 1008.7 1008.3 0.0
18/12:00pm 32.3 34.0 22.4 56 6.8 NNW 17 24 9 13 1009.3 1008.9 0.0
18/11:30am 31.7 33.2 21.2 53 7.1 NNW 15 26 8 14 1009.7 1009.3 0.0
18/11:00am 30.9 33.6 22.2 59 5.9 NNW 11 19 6 10 1010.5 1010.1 0.0
18/10:30am 30.2 33.4 23.1 65 4.9 NNW 11 17 6 9 1010.9 1010.5 0.0
18/10:00am 29.3 33.2 23.0 69 4.3 NNW 7 13 4 7 1011.3 1010.9 0.0
18/09:30am 28.8 31.7 22.5 68 4.3 N 11 15 6 8 1011.5 1011.1 0.0
18/09:00am 27.9 30.6 22.2 71 3.9 N 11 15 6 8 1011.5 1011.1 27.4
18/08:30am 27.2 30.9 22.6 76 3.1 NW 7 17 4 9 1011.9 1011.5 27.4
18/08:00am 26.8 30.8 22.0 75 3.2 SSW 4 7 2 4 1012.0 1011.6 27.4
18/07:30am 26.0 29.8 21.0 74 3.3 SSW 2 4 1 2 1011.9 1011.5 27.4
18/07:00am 24.4 27.7 19.9 76 2.9 W 2 4 1 2 1012.0 1011.6 27.4
18/06:30am 22.7 25.5 18.9 79 2.4 NW 2 4 1 2 1011.9 1011.5 27.4
18/06:00am 21.0 23.9 19.1 89 1.2 NNE 2 6 1 3 1011.5 1011.1 27.4
18/05:30am 20.1 23.3 18.9 93 0.8 CALM 0 0 0 0 1010.8 1010.4 27.4
18/05:00am 19.7 21.6 18.5 93 0.7 N 6 7 3 4 1010.5 1010.1 27.4
18/04:30am 20.1 23.3 18.8 92 0.8 CALM 0 0 0 0 1010.2 1009.8 27.4
18/04:00am 20.2 22.9 18.7 91 0.9 N 2 4 1 2 1009.7 1009.3 27.4
18/03:30am 20.2 22.6 18.9 92 0.8 SSE 4 9 2 5 1009.6 1009.2 27.4
18/03:00am 20.6 23.0 18.9 90 1.1 NNW 4 7 2 4 1008.8 1008.4 27.4
18/02:30am 20.2 22.6 18.9 92 0.8 NNW 4 6 2 3 1008.6 1008.2 27.4
18/02:00am 20.3 22.4 18.2 88 1.3 NNE 4 6 2 3 1008.5 1008.1 27.4
18/01:30am 20.2 22.6 18.7 91 0.9 NNW 4 6 2 3 1008.7 1008.3 27.4
18/01:00am 20.3 23.5 18.8 91 0.9 CALM 0 0 0 0 1009.3 1008.9 27.4
18/12:30am 20.3 23.0 18.6 90 1.1 SSE 2 6 1 3 1009.6 1009.2 27.4
18/12:00am 20.3 22.4 18.2 88 1.3 WSW 4 6 2 3 1009.3 1008.9 27.4
 
Date/Time
EST
Tmp

°C
App
Tmp
°C
Dew
Point
°C
Rel
Hum
%
Delta-T

°C
Wind Press
QNH
hPa
Press
MSL
hPa
Rain
since
9 am
mm
Dir
 
Spd
km/h
Gust
km/h
Spd
kts
Gust
kts
17/11:30pm 21.1 23.2 18.1 83 1.9 N 4 6 2 3 1009.4 1009.0 27.4
17/11:00pm 21.6 23.2 17.8 79 2.4 N 6 9 3 5 1009.3 1008.9 27.4
17/10:30pm 21.1 22.7 17.9 82 2.0 W 6 11 3 6 1009.4 1009.0 27.4
17/10:00pm 20.6 22.3 18.0 85 1.6 WSW 6 11 3 6 1009.3 1008.9 27.4
17/09:30pm 20.8 22.4 17.8 83 1.9 W 6 9 3 5 1009.3 1008.9 27.4
17/09:00pm 21.4 22.0 17.6 79 2.4 NW 11 15 6 8 1009.4 1009.0 27.4
17/08:30pm 20.9 21.5 18.5 86 1.5 NNW 13 22 7 12 1009.1 1008.7 27.4
17/08:00pm 20.1 19.6 17.7 86 1.5 NNW 17 26 9 14 1009.3 1008.9 27.2
17/07:30pm 20.6 20.7 17.4 82 2.0 NE 13 35 7 19 1010.4 1010.0 24.6
17/07:00pm 19.5 18.4 17.8 90 1.0 SE 20 37 11 20 1008.5 1008.1 21.8
17/06:41pm 18.4 14.6 16.6 89 1.1 SSE 32 56 17 30 1009.3 1008.9 15.8
17/06:39pm 18.5 15.0 16.5 88 1.2 S 30 56 16 30 1009.6 1009.2 13.6
17/06:37pm 19.0 15.9 16.6 86 1.4 S 28 56 15 30 1009.7 1009.3 10.2
17/06:30pm 21.7 19.1 16.0 70 3.4 SSE 24 41 13 22 1009.2 1008.8 2.2
17/06:29pm 21.9 19.2 15.7 68 3.7 SSE 24 41 13 22 1009.2 1008.8 2.0
17/06:22pm 24.8 22.1 14.6 53 6.1 SE 22 52 12 28 1007.1 1006.7 0.4
17/06:00pm 30.5 32.9 20.1 53 6.9 NNE 7 17 4 9 1005.5 1005.2 0.0
17/05:30pm 31.1 31.5 19.1 48 7.8 NE 15 28 8 15 1003.9 1003.6 0.0
17/05:00pm 30.9 31.4 18.3 47 8.2 ENE 13 22 7 12 1003.8 1003.5 0.0
17/04:30pm 31.0 30.6 18.0 45 8.4 SE 17 33 9 18 1003.9 1003.6 0.0
17/04:29pm 31.5 31.0 17.8 44 8.8 ESE 17 33 9 18 1003.9 1003.6 0.0
17/04:00pm 36.7 36.2 16.8 30 12.8 NNW 15 24 8 13 1003.2 1002.9 0.0
17/03:30pm 36.6 36.4 16.7 30 12.8 NNW 13 22 7 12 1003.0 1002.7 0.0
17/03:00pm 36.4 35.9 16.0 29 13.0 NNW 13 22 7 12 1003.4 1003.1 0.0
17/02:30pm 36.4 36.7 17.0 31 12.5 WNW 11 20 6 11 1004.0 1003.7 0.0
17/02:00pm 36.0 36.6 18.6 36 11.5 NNW 13 20 7 11 1004.4 1004.1 0.0
17/01:30pm 35.5 35.9 18.1 35 11.4 NW 13 20 7 11 1004.8 1004.5 0.0
17/01:00pm 35.3 36.7 19.6 39 10.5 NW 11 20 6 11 1005.3 1005.0 0.0
17/12:30pm 34.5 36.4 20.5 44 9.4 NW 11 17 6 9 1005.7 1005.4 0.0
17/12:00pm 33.8 35.9 20.9 46 8.7 NNW 11 22 6 12 1006.0 1005.7 0.0
17/11:30am 33.1 35.4 21.3 50 8.0 NNW 11 22 6 12 1006.4 1006.1 0.0
17/11:00am 32.0 34.4 21.5 53 7.1 NNW 11 19 6 10 1006.8 1006.5 0.0
17/10:30am 30.8 34.1 21.9 59 6.0 NNW 7 15 4 8 1007.4 1007.0 0.0
17/10:00am 30.4 33.4 22.0 60 5.7 NW 9 13 5 7 1007.5 1007.1 0.0
17/09:30am 29.1 32.2 22.1 66 4.7 N 9 15 5 8 1007.7 1007.3 0.0
17/09:00am 28.3 31.9 23.0 73 3.6 N 9 13 5 7 1007.8 1007.4 0.0
17/08:30am 27.4 31.3 23.0 77 3.0 NNW 7 15 4 8 1008.1 1007.7 0.0
17/08:00am 26.4 30.3 22.9 81 2.4 NNW 7 11 4 6 1008.1 1007.7 0.0
17/07:30am 25.9 29.9 22.8 83 2.1 N 6 11 3 6 1008.1 1007.7 0.0
17/07:00am 24.9 30.1 22.8 88 1.4 CALM 0 0 0 0 1007.7 1007.3 0.0
17/06:30am 24.0 28.9 22.3 90 1.1 CALM 0 0 0 0 1007.9 1007.5 0.0
17/06:00am 23.1 27.8 21.9 93 0.8 CALM 0 0 0 0 1007.6 1007.2 0.0
17/05:30am 22.9 27.5 21.7 93 0.8 CALM 0 0 0 0 1007.1 1006.7 0.0
17/05:00am 22.8 27.3 21.6 93 0.8 CALM 0 0 0 0 1006.7 1006.4 0.0
17/04:30am 22.8 26.8 21.4 92 0.9 NNW 2 2 1 1 1006.0 1005.7 0.0
17/04:00am 23.1 27.7 21.7 92 0.9 CALM 0 4 0 2 1005.8 1005.5 0.0
17/03:30am 22.9 27.4 21.5 92 0.9 CALM 0 0 0 0 1005.8 1005.5 0.0
17/03:00am 23.1 27.6 21.5 91 1.1 CALM 0 0 0 0 1005.5 1005.2 0.0
17/02:30am 23.2 26.6 21.6 91 1.1 NNE 6 7 3 4 1005.8 1005.5 0.0
17/02:00am 23.3 27.8 21.6 90 1.1 CALM 0 0 0 0 1007.2 1006.8 0.0
17/01:30am 23.3 27.6 21.2 88 1.4 CALM 0 0 0 0 1007.5 1007.1 0.0
17/01:00am 23.6 27.2 21.3 87 1.5 NW 4 6 2 3 1007.6 1007.2 0.0
17/12:30am 24.0 27.8 21.7 87 1.5 N 4 7 2 4 1007.8 1007.4 0.0
17/12:00am 24.2 27.0 21.5 85 1.8 N 9 11 5 6 1008.2 1007.8 0.0
 
Date/Time
EST
Tmp

°C
App
Tmp
°C
Dew
Point
°C
Rel
Hum
%
Delta-T

°C
Wind Press
QNH
hPa
Press
MSL
hPa
Rain
since
9 am
mm
Dir
 
Spd
km/h
Gust
km/h
Spd
kts
Gust
kts
16/11:30pm 24.3 28.1 21.6 85 1.8 WNW 4 17 2 9 1009.2 1008.8 0.0
16/11:00pm 23.5 27.8 21.2 87 1.5 CALM 0 0 0 0 1008.2 1007.8 0.0
16/10:30pm 24.2 28.2 21.3 84 1.9 NNW 2 2 1 1 1007.8 1007.4 0.0
16/10:00pm 24.5 28.1 21.2 82 2.2 N 4 9 2 5 1007.9 1007.5 0.0
16/09:30pm 24.9 27.9 21.2 80 2.4 N 7 9 4 5 1007.6 1007.2 0.0
16/09:00pm 25.3 28.3 21.2 78 2.7 N 7 11 4 6 1007.5 1007.1 0.0
16/08:30pm 25.7 29.1 20.9 75 3.2 N 4 6 2 3 1007.4 1007.0 0.0
16/08:00pm 26.3 29.4 21.1 73 3.5 NNE 6 11 3 6 1007.1 1006.7 0.0
16/07:30pm 26.7 29.5 20.8 70 3.9 NNE 7 17 4 9 1006.8 1006.5 0.0
16/07:00pm 27.4 29.9 21.0 68 4.3 NNE 9 17 5 9 1006.3 1006.0 0.0
16/06:30pm 28.0 29.2 20.6 64 4.9 NNE 15 26 8 14 1005.9 1005.6 0.0
16/06:00pm 28.9 30.2 20.9 62 5.3 NNE 15 24 8 13 1005.4 1005.1 0.0
16/05:30pm 29.9 31.1 20.7 57 6.1 NNE 15 26 8 14 1005.1 1004.8 0.0
16/05:00pm 31.0 31.6 20.3 53 7.1 NNE 17 26 9 14 1004.6 1004.3 0.0
16/04:30pm 33.0 32.7 15.5 35 10.9 N 11 20 6 11 1004.6 1004.3 0.0
16/04:00pm 32.9 32.7 15.8 35 10.7 N 11 19 6 10 1004.7 1004.4 0.0
16/03:30pm 32.7 33.2 16.5 37 10.2 NNW 9 17 5 9 1004.9 1004.6 0.0
16/03:00pm 32.4 32.5 17.5 41 9.6 N 13 20 7 11 1005.3 1005.0 0.0
16/02:30pm 32.3 34.1 18.8 44 8.8 N 7 11 4 6 1006.3 1006.0 0.0
16/02:00pm 31.7 33.1 18.7 46 8.5 NNW 9 19 5 10 1006.7 1006.4 0.0
16/01:30pm 31.0 32.8 18.7 48 8.0 WNW 7 17 4 9 1007.4 1007.0 0.0
16/01:00pm 30.3 32.5 19.6 52 7.0 NW 7 13 4 7 1008.0 1007.6 0.0
16/12:30pm 29.2 30.6 18.6 52 6.8 N 9 15 5 8 1008.4 1008.0 0.0
16/12:00pm 28.5 29.6 18.9 56 6.2 NW 11 28 6 15 1008.8 1008.4 0.0
16/11:30am 27.8 29.1 18.5 57 6.0 NNW 9 17 5 9 1009.3 1008.9 0.0
16/11:00am 27.2 28.7 18.8 60 5.4 NNW 9 17 5 9 1009.8 1009.4 0.0
16/10:30am 26.4 26.9 18.3 61 5.2 NNW 13 20 7 11 1010.1 1009.7 0.0
16/10:00am 25.7 26.4 17.9 62 4.9 NNW 11 20 6 11 1010.7 1010.3 0.0
16/09:30am 24.8 26.0 17.3 63 4.7 N 7 13 4 7 1011.1 1010.7 0.0
16/09:00am 24.3 26.1 17.3 65 4.4 SE 4 7 2 4 1011.5 1011.1 0.0
16/08:30am 23.6 25.2 16.9 66 4.1 SE 4 6 2 3 1011.3 1010.9 0.0
16/08:00am 22.6 25.1 17.3 72 3.3 CALM 0 4 0 2 1011.5 1011.1 0.0
16/07:30am 20.8 22.4 16.8 78 2.4 NNW 4 6 2 3 1011.3 1010.9 0.0
16/07:00am 19.9 22.3 16.9 83 1.8 CALM 0 2 0 1 1011.2 1010.8 0.0
16/06:30am 19.2 21.1 16.8 86 1.5 SE 2 6 1 3 1011.3 1010.9 0.0
16/06:00am 17.7 20.1 16.9 95 0.5 CALM 0 0 0 0 1011.2 1010.8 0.0
16/05:30am 17.1 19.3 16.5 96 0.4 CALM 0 0 0 0 1011.0 1010.6 0.0

Latest Capital City Observations: Canberra | Sydney | Melbourne | Brisbane | Adelaide | Perth | Hobart | Darwin

Other Formats:

Comma delimited format used in spreadsheet applications
http://www.bom.gov.au/fwo/IDQ60901/IDQ60901.94566.axf

JavaScript Object Notation format (JSON) in row-major order
http://www.bom.gov.au/fwo/IDQ60901/IDQ60901.94566.json